createdAt,value
2022-08-11T00:00:00.415Z,101233.72
2022-08-11T00:05:04.027Z,101218.47
2022-08-11T00:10:05.370Z,101217.53
2022-08-11T00:15:03.665Z,101215.81
2022-08-11T00:20:12.825Z,101216.03
2022-08-11T00:25:22.709Z,101202.88
2022-08-11T00:30:22.349Z,101217.06
2022-08-11T00:35:53.963Z,101218.09
2022-08-11T00:41:16.920Z,101239.84
2022-08-11T00:46:49.621Z,101216.75
2022-08-11T00:52:15.392Z,101207.06
2022-08-11T00:57:38.583Z,101220.53
2022-08-11T01:02:45.059Z,101197.56
2022-08-11T01:08:06.189Z,101222.72
2022-08-11T01:13:25.997Z,101230.50
2022-08-11T01:19:02.848Z,101221.19
2022-08-11T01:24:39.154Z,101212.09
2022-08-11T01:30:15.556Z,101205.97
2022-08-11T01:35:32.575Z,101209.44
2022-08-11T01:40:53.453Z,101199.03
2022-08-11T01:46:01.428Z,101179.44
2022-08-11T01:51:09.705Z,101193.81
2022-08-11T01:56:37.618Z,101187.47
2022-08-11T02:01:58.561Z,101177.19
2022-08-11T02:07:09.059Z,101187.69
2022-08-11T02:12:54.355Z,101193.16
2022-08-11T02:17:54.833Z,101194.91
2022-08-11T02:24:05.668Z,101183.91
2022-08-11T02:29:15.228Z,101202.88
2022-08-11T02:34:18.786Z,101200.31
2022-08-11T02:39:18.403Z,101198.22
2022-08-11T02:44:55.893Z,101191.63
2022-08-11T02:50:07.508Z,101198.06
2022-08-11T02:55:50.914Z,101202.63
2022-08-11T03:01:02.681Z,101182.88
2022-08-11T03:06:25.847Z,101189.44
2022-08-11T03:11:52.271Z,101215.09
2022-08-11T03:17:06.316Z,101176.97
2022-08-11T03:22:23.260Z,101186.09
2022-08-11T03:27:58.371Z,101225.09
2022-08-11T03:33:45.431Z,101202.22
2022-08-11T03:39:11.890Z,101202.78
2022-08-11T03:44:23.923Z,101209.31
2022-08-11T03:49:46.994Z,101197.03
2022-08-11T03:54:54.287Z,101226.53
2022-08-11T04:00:04.544Z,101222.97
2022-08-11T04:05:37.036Z,101227.41
2022-08-11T04:10:52.804Z,101231.09
2022-08-11T04:16:22.831Z,101230.00
2022-08-11T04:21:58.547Z,101231.06
2022-08-11T04:27:37.604Z,101240.00
2022-08-11T04:33:10.185Z,101236.09
2022-08-11T04:38:40.664Z,101242.25
2022-08-11T04:44:06.862Z,101249.69
2022-08-11T04:50:03.285Z,101254.00
2022-08-11T04:55:49.060Z,101248.28
2022-08-11T05:01:37.681Z,101204.34
2022-08-11T05:06:59.057Z,101243.19
2022-08-11T05:12:31.087Z,101224.25
2022-08-11T05:18:20.535Z,101235.00
2022-08-11T05:23:38.495Z,101224.91
2022-08-11T05:29:19.433Z,101236.22
2022-08-11T05:34:56.550Z,101252.31
2022-08-11T05:40:19.834Z,101240.94
2022-08-11T05:46:02.711Z,101215.78
2022-08-11T05:52:05.530Z,101230.28
2022-08-11T05:57:49.935Z,101237.19
2022-08-11T06:02:55.432Z,101230.06
2022-08-11T06:07:57.325Z,101223.28
2022-08-11T06:12:58.160Z,101210.00
2022-08-11T06:17:57.631Z,101231.41
2022-08-11T06:23:06.569Z,101211.69
2022-08-11T06:28:06.766Z,101210.28
2022-08-11T06:33:05.024Z,101210.00
2022-08-11T06:38:08.478Z,101213.00
2022-08-11T06:43:27.192Z,101237.09
2022-08-11T06:48:28.237Z,101218.59
2022-08-11T06:53:30.584Z,101238.63
2022-08-11T06:58:53.969Z,101200.84
2022-08-11T07:04:06.667Z,101200.81
2022-08-11T07:09:47.559Z,101213.56
2022-08-11T07:15:16.381Z,101210.91
2022-08-11T07:20:33.428Z,101188.06
2022-08-11T07:25:54.571Z,101232.75
2022-08-11T07:30:54.935Z,101208.22
2022-08-11T07:35:55.677Z,101206.94
2022-08-11T07:40:54.347Z,101202.69
2022-08-11T07:46:11.447Z,101188.81
2022-08-11T07:51:28.902Z,101206.44
2022-08-11T07:56:55.627Z,101195.50
2022-08-11T08:02:07.360Z,101196.34
2022-08-11T08:07:24.656Z,101197.56
2022-08-11T08:12:45.107Z,101184.78
2022-08-11T08:18:10.070Z,101212.94
2022-08-11T08:23:13.709Z,101177.44
2022-08-11T08:28:15.602Z,101163.13
2022-08-11T08:33:22.130Z,101200.22
2022-08-11T08:38:23.136Z,101186.97
2022-08-11T08:43:25.373Z,101176.22
2022-08-11T08:48:25.243Z,101173.47
2022-08-11T08:53:32.914Z,101167.72
2022-08-11T08:58:32.328Z,101144.41
2022-08-11T09:04:02.885Z,101153.47
2022-08-11T09:14:51.977Z,101161.94
2022-08-11T09:20:05.316Z,101151.47
2022-08-11T09:25:24.005Z,101150.94
2022-08-11T09:30:22.347Z,101143.56
2022-08-11T09:35:21.721Z,101142.69
2022-08-11T09:40:32.698Z,101126.03
2022-08-11T09:45:40.456Z,101139.69
2022-08-11T09:50:42.746Z,101123.41
2022-08-11T09:55:41.173Z,101139.06
2022-08-11T10:00:42.881Z,101131.59
2022-08-11T10:06:15.625Z,101117.50
2022-08-11T10:11:17.553Z,101116.75
2022-08-11T10:16:17.365Z,101121.00
2022-08-11T10:21:25.370Z,101149.28
2022-08-11T10:26:48.527Z,101118.38
2022-08-11T10:32:06.094Z,101124.38
2022-08-11T10:37:05.558Z,101109.47
2022-08-11T10:42:35.387Z,101122.88
2022-08-11T10:47:49.110Z,101126.72
2022-08-11T10:53:09.090Z,101110.56
2022-08-11T10:58:26.470Z,101092.91
2022-08-11T11:03:26.928Z,101090.09
2022-08-11T11:14:11.761Z,101121.94
2022-08-11T11:19:11.212Z,101076.31
2022-08-11T11:24:34.089Z,101107.03
2022-08-11T11:30:00.371Z,101092.00
2022-08-11T11:35:18.230Z,101095.31
2022-08-11T11:40:19.870Z,101069.13
2022-08-11T11:45:24.366Z,101069.91
2022-08-11T11:50:36.961Z,101079.34
2022-08-11T11:55:35.775Z,101053.81
2022-08-11T12:00:53.862Z,101068.97
2022-08-11T12:05:55.996Z,101064.94
2022-08-11T12:11:21.181Z,101075.69
2022-08-11T12:16:32.981Z,101085.75
2022-08-11T12:21:37.396Z,101089.34
2022-08-11T12:27:16.596Z,101061.78
2022-08-11T12:32:21.518Z,101084.09
2022-08-11T12:37:25.027Z,101052.16
2022-08-11T12:42:47.501Z,101054.28
2022-08-11T12:48:58.827Z,101053.28
2022-08-11T12:54:21.206Z,101044.91
2022-08-11T12:59:41.046Z,101041.03
2022-08-11T13:05:02.611Z,101038.47
2022-08-11T13:10:05.714Z,101052.06
2022-08-11T13:15:04.782Z,101046.00
2022-08-11T13:20:05.792Z,101042.94
2022-08-11T13:25:04.824Z,101040.41
2022-08-11T13:30:23.315Z,101035.28
2022-08-11T13:35:23.022Z,101026.41
2022-08-11T13:40:33.150Z,101032.22
2022-08-11T13:45:48.058Z,101042.78
2022-08-11T13:51:07.122Z,101025.88
2022-08-11T13:56:04.767Z,101012.56
2022-08-11T14:01:51.361Z,101030.59
2022-08-11T14:06:22.466Z,101024.06
2022-08-11T14:12:22.124Z,101042.03
2022-08-11T14:17:01.738Z,101027.38
2022-08-11T14:22:08.405Z,101041.00
2022-08-11T14:27:08.939Z,101032.84
2022-08-11T14:32:27.775Z,101016.47
2022-08-11T14:37:30.198Z,101010.56
2022-08-11T14:42:47.781Z,101017.75
2022-08-11T14:47:49.251Z,101009.78
2022-08-11T14:52:53.853Z,101030.22
2022-08-11T14:57:54.811Z,101019.63
2022-08-11T15:03:14.332Z,101023.94
2022-08-11T15:08:14.384Z,101002.03
2022-08-11T15:13:18.528Z,101004.59
2022-08-11T15:18:18.028Z,100995.69
2022-08-11T15:23:35.445Z,100978.75
2022-08-11T15:28:58.823Z,100986.25
2022-08-11T15:34:22.103Z,100977.59
2022-08-11T15:39:24.285Z,100977.25
2022-08-11T15:45:01.676Z,100986.63
2022-08-11T15:50:11.246Z,100967.31
2022-08-11T15:55:13.051Z,100988.50
2022-08-11T16:00:31.228Z,100948.03
2022-08-11T16:05:46.031Z,100983.13
2022-08-11T16:10:46.320Z,100991.56
2022-08-11T16:16:11.407Z,100969.84
2022-08-11T16:21:34.134Z,100973.38
2022-08-11T16:27:10.236Z,100953.16
2022-08-11T16:32:13.205Z,100964.34
2022-08-11T16:37:44.429Z,100965.38
2022-08-11T16:43:10.725Z,100957.47
2022-08-11T16:48:35.006Z,100965.56
2022-08-11T16:53:54.581Z,100993.31
2022-08-11T16:59:17.088Z,100972.59
2022-08-11T17:04:50.070Z,100998.94
2022-08-11T17:10:50.391Z,100983.66
2022-08-11T17:15:55.479Z,100981.31
2022-08-11T17:20:54.669Z,100993.84
2022-08-11T17:25:59.704Z,100992.47
2022-08-11T17:31:25.304Z,100992.16
2022-08-11T17:36:24.292Z,101001.31
2022-08-11T17:41:44.413Z,100990.97
2022-08-11T17:47:06.140Z,101012.59
2022-08-11T17:52:25.259Z,101011.09
2022-08-11T17:57:47.539Z,101006.59
2022-08-11T18:03:08.517Z,101032.88
2022-08-11T18:08:28.456Z,101020.34
2022-08-11T18:13:48.546Z,101024.88
2022-08-11T18:19:07.708Z,101020.63
2022-08-11T18:24:28.565Z,101031.88
2022-08-11T18:29:45.905Z,101061.63
2022-08-11T18:35:10.970Z,101063.25
2022-08-11T18:40:31.674Z,101063.47
2022-08-11T18:46:05.262Z,101064.00
2022-08-11T18:51:31.575Z,101071.47
2022-08-11T18:56:58.924Z,101067.47
2022-08-11T19:02:17.484Z,101073.59
2022-08-11T19:07:37.020Z,101061.75
2022-08-11T19:13:01.466Z,101067.34
2022-08-11T19:18:21.090Z,101077.50
2022-08-11T19:23:52.937Z,101080.13
2022-08-11T19:30:12.073Z,101072.81
2022-08-11T19:34:50.943Z,101106.03
2022-08-11T19:40:08.862Z,101101.66
2022-08-11T19:45:30.588Z,101089.31
2022-08-11T19:50:47.952Z,101104.91
2022-08-11T19:56:10.604Z,101077.53
2022-08-11T20:01:27.538Z,101059.59
2022-08-11T20:06:45.028Z,101070.78
2022-08-11T20:12:05.773Z,101092.44
2022-08-11T20:17:23.770Z,101100.53
2022-08-11T20:22:43.555Z,101077.03
2022-08-11T20:28:03.577Z,101100.31
2022-08-11T20:33:24.320Z,101095.72
2022-08-11T20:38:46.157Z,101115.13
2022-08-11T20:44:06.808Z,101137.56
2022-08-11T20:49:26.675Z,101123.41
2022-08-11T20:55:03.170Z,101108.53
2022-08-11T21:00:38.676Z,101140.41
2022-08-11T21:06:09.926Z,101139.88
2022-08-11T21:11:29.643Z,101137.84
2022-08-11T21:16:52.481Z,101124.72
2022-08-11T21:22:11.235Z,101146.97
2022-08-11T21:27:30.840Z,101150.56
2022-08-11T21:32:49.707Z,101132.34
2022-08-11T21:38:09.028Z,101156.59
2022-08-11T21:43:26.498Z,101145.34
2022-08-11T21:48:46.900Z,101159.72
2022-08-11T21:54:04.127Z,101151.91
2022-08-11T21:59:22.831Z,101161.81
2022-08-11T22:04:41.040Z,101151.59
2022-08-11T22:09:58.709Z,101153.13
2022-08-11T22:15:17.379Z,101145.34
2022-08-11T22:20:35.382Z,101133.09
2022-08-11T22:25:54.421Z,101140.97
2022-08-11T22:31:16.736Z,101126.75
2022-08-11T22:36:34.382Z,101137.34
2022-08-11T22:41:55.367Z,101158.16
2022-08-11T22:47:18.353Z,101126.22
2022-08-11T22:52:38.805Z,101145.16
2022-08-11T22:58:00.938Z,101156.88
2022-08-11T23:03:34.494Z,101142.13
2022-08-11T23:08:58.939Z,101142.38
2022-08-11T23:14:18.183Z,101154.72
2022-08-11T23:20:06.802Z,101138.50
2022-08-11T23:25:17.857Z,101141.84
2022-08-11T23:30:36.719Z,101140.28
2022-08-11T23:35:59.508Z,101157.50
2022-08-11T23:41:20.433Z,101151.66
2022-08-11T23:46:41.602Z,101131.22
2022-08-11T23:52:00.332Z,101118.25
2022-08-11T23:57:19.431Z,101106.03
